sensor_id;sensor_type;location;lat;lon;timestamp;pressure;altitude;pressure_sealevel;temperature;humidity
47761;BME280;33524;55.434;38.520;2022-08-21T00:01:40;101220.91;;;14.14;58.12
47761;BME280;33524;55.434;38.520;2022-08-21T00:04:09;101223.31;;;14.17;62.00
47761;BME280;33524;55.434;38.520;2022-08-21T00:06:40;101219.84;;;14.17;62.00
47761;BME280;33524;55.434;38.520;2022-08-21T00:09:08;101220.91;;;14.14;62.32
47761;BME280;33524;55.434;38.520;2022-08-21T00:11:37;101222.84;;;14.23;60.00
47761;BME280;33524;55.434;38.520;2022-08-21T00:14:05;101220.63;;;14.06;60.11
47761;BME280;33524;55.434;38.520;2022-08-21T00:16:34;101224.84;;;14.08;58.94
47761;BME280;33524;55.434;38.520;2022-08-21T00:19:02;101223.84;;;14.22;60.68
47761;BME280;33524;55.434;38.520;2022-08-21T00:21:29;101221.78;;;14.26;60.59
47761;BME280;33524;55.434;38.520;2022-08-21T00:23:58;101218.75;;;14.19;60.89
47761;BME280;33524;55.434;38.520;2022-08-21T00:26:25;101220.94;;;14.25;60.11
47761;BME280;33524;55.434;38.520;2022-08-21T00:28:53;101224.50;;;14.13;57.90
47761;BME280;33524;55.434;38.520;2022-08-21T00:31:22;101218.72;;;14.08;57.73
47761;BME280;33524;55.434;38.520;2022-08-21T00:33:49;101214.44;;;14.18;61.45
47761;BME280;33524;55.434;38.520;2022-08-21T00:36:17;101219.63;;;13.96;59.27
47761;BME280;33524;55.434;38.520;2022-08-21T00:38:45;101217.84;;;14.07;59.89
47761;BME280;33524;55.434;38.520;2022-08-21T00:41:13;101216.47;;;14.15;62.12
47761;BME280;33524;55.434;38.520;2022-08-21T00:44:01;101210.06;;;14.06;57.57
47761;BME280;33524;55.434;38.520;2022-08-21T00:46:29;101210.91;;;14.06;62.66
47761;BME280;33524;55.434;38.520;2022-08-21T00:48:56;101211.91;;;13.92;60.72
47761;BME280;33524;55.434;38.520;2022-08-21T00:51:27;101206.13;;;13.87;62.98
47761;BME280;33524;55.434;38.520;2022-08-21T00:54:04;101209.22;;;13.81;60.55
47761;BME280;33524;55.434;38.520;2022-08-21T00:56:46;101209.31;;;13.80;61.78
47761;BME280;33524;55.434;38.520;2022-08-21T00:59:16;101215.69;;;13.77;61.39
47761;BME280;33524;55.434;38.520;2022-08-21T01:01:44;101210.47;;;13.51;59.53
47761;BME280;33524;55.434;38.520;2022-08-21T01:04:12;101216.13;;;13.71;62.14
47761;BME280;33524;55.434;38.520;2022-08-21T01:06:40;101220.09;;;13.52;59.46
47761;BME280;33524;55.434;38.520;2022-08-21T01:09:08;101220.84;;;13.55;62.32
47761;BME280;33524;55.434;38.520;2022-08-21T01:11:36;101219.06;;;13.42;60.69
47761;BME280;33524;55.434;38.520;2022-08-21T01:14:04;101229.75;;;13.28;61.24
47761;BME280;33524;55.434;38.520;2022-08-21T01:16:33;101225.00;;;13.33;61.42
47761;BME280;33524;55.434;38.520;2022-08-21T01:19:00;101224.88;;;13.22;63.60
47761;BME280;33524;55.434;38.520;2022-08-21T01:21:28;101233.03;;;12.93;60.72
47761;BME280;33524;55.434;38.520;2022-08-21T01:23:56;101225.22;;;12.91;60.55
47761;BME280;33524;55.434;38.520;2022-08-21T01:26:25;101222.16;;;12.85;60.88
47761;BME280;33524;55.434;38.520;2022-08-21T01:29:28;101219.09;;;12.91;65.39
47761;BME280;33524;55.434;38.520;2022-08-21T01:31:58;101223.13;;;12.84;62.31
47761;BME280;33524;55.434;38.520;2022-08-21T01:34:27;101221.44;;;12.83;65.17
47761;BME280;33524;55.434;38.520;2022-08-21T01:36:54;101214.84;;;12.50;60.82
47761;BME280;33524;55.434;38.520;2022-08-21T01:39:22;101216.87;;;12.85;63.06
47761;BME280;33524;55.434;38.520;2022-08-21T01:41:50;101223.09;;;12.71;65.33
47761;BME280;33524;55.434;38.520;2022-08-21T01:44:20;101216.00;;;12.46;62.98
47761;BME280;33524;55.434;38.520;2022-08-21T01:46:47;101217.59;;;13.00;66.49
47761;BME280;33524;55.434;38.520;2022-08-21T01:49:15;101222.38;;;13.07;64.62
47761;BME280;33524;55.434;38.520;2022-08-21T01:51:43;101220.69;;;12.93;66.38
47761;BME280;33524;55.434;38.520;2022-08-21T01:54:11;101222.28;;;12.96;65.36
47761;BME280;33524;55.434;38.520;2022-08-21T01:56:43;101219.00;;;12.80;63.33
47761;BME280;33524;55.434;38.520;2022-08-21T01:59:11;101220.69;;;12.93;64.22
47761;BME280;33524;55.434;38.520;2022-08-21T02:01:39;101218.16;;;12.92;63.29
47761;BME280;33524;55.434;38.520;2022-08-21T02:04:08;101222.16;;;12.85;65.12
47761;BME280;33524;55.434;38.520;2022-08-21T02:06:36;101224.19;;;12.94;61.45
47761;BME280;33524;55.434;38.520;2022-08-21T02:09:05;101217.53;;;12.88;62.74
47761;BME280;33524;55.434;38.520;2022-08-21T02:11:33;101216.25;;;12.81;64.31
47761;BME280;33524;55.434;38.520;2022-08-21T02:14:02;101227.25;;;13.01;65.53
47761;BME280;33524;55.434;38.520;2022-08-21T02:16:29;101221.44;;;12.70;63.09
47761;BME280;33524;55.434;38.520;2022-08-21T02:18:58;101224.47;;;12.77;62.56
47761;BME280;33524;55.434;38.520;2022-08-21T02:21:26;101233.97;;;12.66;62.77
47761;BME280;33524;55.434;38.520;2022-08-21T02:23:54;101231.25;;;13.06;66.07
47761;BME280;33524;55.434;38.520;2022-08-21T02:26:22;101224.91;;;12.83;66.23
47761;BME280;33524;55.434;38.520;2022-08-21T02:28:49;101225.34;;;13.03;66.06
47761;BME280;33524;55.434;38.520;2022-08-21T02:31:17;101231.38;;;12.92;62.90
47761;BME280;33524;55.434;38.520;2022-08-21T02:33:45;101233.13;;;12.91;65.38
47761;BME280;33524;55.434;38.520;2022-08-21T02:36:13;101236.22;;;12.98;65.87
47761;BME280;33524;55.434;38.520;2022-08-21T02:38:41;101232.50;;;13.13;65.29
47761;BME280;33524;55.434;38.520;2022-08-21T02:41:12;101228.28;;;12.85;66.06
47761;BME280;33524;55.434;38.520;2022-08-21T02:43:40;101231.34;;;12.66;62.16
47761;BME280;33524;55.434;38.520;2022-08-21T02:46:10;101241.28;;;12.76;64.30
47761;BME280;33524;55.434;38.520;2022-08-21T02:48:39;101236.97;;;13.00;62.43
47761;BME280;33524;55.434;38.520;2022-08-21T02:51:09;101236.31;;;12.97;64.02
47761;BME280;33524;55.434;38.520;2022-08-21T02:53:37;101235.78;;;12.79;64.08
47761;BME280;33524;55.434;38.520;2022-08-21T02:56:06;101234.63;;;12.83;62.86
47761;BME280;33524;55.434;38.520;2022-08-21T02:58:35;101232.31;;;12.91;65.57
47761;BME280;33524;55.434;38.520;2022-08-21T03:01:05;101235.56;;;13.07;65.07
47761;BME280;33524;55.434;38.520;2022-08-21T03:03:36;101241.81;;;13.06;62.93
47761;BME280;33524;55.434;38.520;2022-08-21T03:06:05;101239.78;;;13.23;63.29
47761;BME280;33524;55.434;38.520;2022-08-21T03:08:35;101246.87;;;13.35;63.99
47761;BME280;33524;55.434;38.520;2022-08-21T03:11:03;101242.12;;;13.40;62.81
47761;BME280;33524;55.434;38.520;2022-08-21T03:13:33;101243.72;;;13.30;64.36
47761;BME280;33524;55.434;38.520;2022-08-21T03:16:01;101240.56;;;13.62;61.67
47761;BME280;33524;55.434;38.520;2022-08-21T03:18:31;101245.12;;;13.60;64.10
47761;BME280;33524;55.434;38.520;2022-08-21T03:20:59;101233.81;;;13.58;63.41
47761;BME280;33524;55.434;38.520;2022-08-21T03:23:27;101238.44;;;13.67;63.51
47761;BME280;33524;55.434;38.520;2022-08-21T03:25:59;101234.81;;;14.05;63.81
47761;BME280;33524;55.434;38.520;2022-08-21T03:28:26;101234.97;;;14.15;63.61
47761;BME280;33524;55.434;38.520;2022-08-21T03:30:54;101236.78;;;13.90;60.18
47761;BME280;33524;55.434;38.520;2022-08-21T03:33:22;101235.88;;;14.02;63.26
47761;BME280;33524;55.434;38.520;2022-08-21T03:35:58;101240.00;;;14.42;61.60
47761;BME280;33524;55.434;38.520;2022-08-21T03:38:28;101236.28;;;14.44;61.84
47761;BME280;33524;55.434;38.520;2022-08-21T03:40:58;101242.38;;;14.58;61.94
47761;BME280;33524;55.434;38.520;2022-08-21T03:43:26;101243.53;;;14.53;60.23
47761;BME280;33524;55.434;38.520;2022-08-21T03:46:00;101244.34;;;14.78;61.99
47761;BME280;33524;55.434;38.520;2022-08-21T03:48:28;101245.69;;;14.95;61.35
47761;BME280;33524;55.434;38.520;2022-08-21T03:50:56;101241.47;;;15.04;59.86
47761;BME280;33524;55.434;38.520;2022-08-21T03:53:25;101242.91;;;15.19;61.14
47761;BME280;33524;55.434;38.520;2022-08-21T03:55:53;101250.28;;;15.27;59.60
47761;BME280;33524;55.434;38.520;2022-08-21T03:58:23;101249.31;;;15.50;58.85
47761;BME280;33524;55.434;38.520;2022-08-21T04:00:52;101248.44;;;15.72;58.75
47761;BME280;33524;55.434;38.520;2022-08-21T04:03:21;101241.25;;;15.96;58.95
47761;BME280;33524;55.434;38.520;2022-08-21T04:05:51;101240.94;;;16.21;58.49
47761;BME280;33524;55.434;38.520;2022-08-21T04:08:19;101242.59;;;16.33;58.01
47761;BME280;33524;55.434;38.520;2022-08-21T04:10:48;101234.31;;;16.48;57.62
47761;BME280;33524;55.434;38.520;2022-08-21T04:13:17;101234.19;;;16.70;57.06
47761;BME280;33524;55.434;38.520;2022-08-21T04:15:44;101229.13;;;16.88;55.14
47761;BME280;33524;55.434;38.520;2022-08-21T04:18:12;101234.63;;;16.97;56.53
47761;BME280;33524;55.434;38.520;2022-08-21T04:20:40;101230.22;;;17.17;55.91
47761;BME280;33524;55.434;38.520;2022-08-21T04:23:17;101227.47;;;17.28;55.90
47761;BME280;33524;55.434;38.520;2022-08-21T04:25:51;101229.03;;;17.40;54.87
47761;BME280;33524;55.434;38.520;2022-08-21T04:28:20;101230.50;;;17.54;55.22
47761;BME280;33524;55.434;38.520;2022-08-21T04:30:50;101231.50;;;17.63;55.05
47761;BME280;33524;55.434;38.520;2022-08-21T04:33:18;101228.88;;;17.82;55.00
47761;BME280;33524;55.434;38.520;2022-08-21T04:35:46;101228.91;;;18.02;54.21
47761;BME280;33524;55.434;38.520;2022-08-21T04:38:13;101232.56;;;18.10;53.33
47761;BME280;33524;55.434;38.520;2022-08-21T04:40:41;101228.06;;;18.21;54.12
47761;BME280;33524;55.434;38.520;2022-08-21T04:43:09;101232.88;;;18.17;54.07
47761;BME280;33524;55.434;38.520;2022-08-21T04:45:39;101227.81;;;18.33;53.88
47761;BME280;33524;55.434;38.520;2022-08-21T04:48:07;101229.87;;;18.59;53.35
47761;BME280;33524;55.434;38.520;2022-08-21T04:50:47;101238.81;;;18.78;53.38
47761;BME280;33524;55.434;38.520;2022-08-21T04:53:22;101227.19;;;18.79;53.17
47761;BME280;33524;55.434;38.520;2022-08-21T04:55:51;101220.09;;;18.97;52.76
47761;BME280;33524;55.434;38.520;2022-08-21T04:58:20;101226.59;;;19.22;52.06
47761;BME280;33524;55.434;38.520;2022-08-21T05:00:48;101226.75;;;19.21;51.89
47761;BME280;33524;55.434;38.520;2022-08-21T05:03:19;101229.53;;;19.29;50.76
47761;BME280;33524;55.434;38.520;2022-08-21T05:05:48;101228.28;;;19.51;51.54
47761;BME280;33524;55.434;38.520;2022-08-21T05:08:17;101237.53;;;19.56;51.46
47761;BME280;33524;55.434;38.520;2022-08-21T05:11:04;101239.41;;;19.74;51.19
47761;BME280;33524;55.434;38.520;2022-08-21T05:13:32;101233.87;;;20.03;50.71
47761;BME280;33524;55.434;38.520;2022-08-21T05:16:00;101233.72;;;20.23;50.20
47761;BME280;33524;55.434;38.520;2022-08-21T05:18:28;101224.19;;;20.46;48.54
47761;BME280;33524;55.434;38.520;2022-08-21T05:20:56;101222.00;;;20.60;49.54
47761;BME280;33524;55.434;38.520;2022-08-21T05:23:24;101221.00;;;20.61;49.82
47761;BME280;33524;55.434;38.520;2022-08-21T05:25:52;101227.50;;;20.58;49.90
47761;BME280;33524;55.434;38.520;2022-08-21T05:28:20;101230.91;;;20.68;49.97
47761;BME280;33524;55.434;38.520;2022-08-21T05:30:48;101229.16;;;20.85;49.64
47761;BME280;33524;55.434;38.520;2022-08-21T05:33:16;101228.34;;;20.85;49.70
47761;BME280;33524;55.434;38.520;2022-08-21T05:35:43;101223.41;;;20.98;49.01
47761;BME280;33524;55.434;38.520;2022-08-21T05:38:11;101229.91;;;20.95;49.22
47761;BME280;33524;55.434;38.520;2022-08-21T05:40:45;101230.75;;;20.96;49.32
47761;BME280;33524;55.434;38.520;2022-08-21T05:43:13;101220.44;;;21.09;49.16
47761;BME280;33524;55.434;38.520;2022-08-21T05:45:42;101215.81;;;21.20;48.88
47761;BME280;33524;55.434;38.520;2022-08-21T05:48:15;101217.34;;;21.65;48.20
47761;BME280;33524;55.434;38.520;2022-08-21T05:50:43;101215.09;;;22.27;46.86
47761;BME280;33524;55.434;38.520;2022-08-21T05:53:12;101213.53;;;22.66;44.76
47761;BME280;33524;55.434;38.520;2022-08-21T05:55:40;101206.06;;;23.09;45.18
47761;BME280;33524;55.434;38.520;2022-08-21T05:58:14;101220.19;;;23.42;44.62
47761;BME280;33524;55.434;38.520;2022-08-21T06:00:44;101213.81;;;23.66;41.82
47761;BME280;33524;55.434;38.520;2022-08-21T06:03:14;101201.50;;;24.03;43.23
47761;BME280;33524;55.434;38.520;2022-08-21T06:05:44;101204.81;;;24.28;42.71
47761;BME280;33524;55.434;38.520;2022-08-21T06:08:14;101204.09;;;24.34;43.22
47761;BME280;33524;55.434;38.520;2022-08-21T06:10:44;101195.81;;;24.59;42.73
47761;BME280;33524;55.434;38.520;2022-08-21T06:13:12;101194.81;;;24.90;42.19
47761;BME280;33524;55.434;38.520;2022-08-21T06:15:40;101189.78;;;25.31;41.39
47761;BME280;33524;55.434;38.520;2022-08-21T06:18:08;101192.84;;;25.43;41.21
47761;BME280;33524;55.434;38.520;2022-08-21T06:20:36;101185.28;;;25.53;40.96
47761;BME280;33524;55.434;38.520;2022-08-21T06:23:04;101187.75;;;25.70;40.84
47761;BME280;33524;55.434;38.520;2022-08-21T06:25:32;101197.03;;;26.10;40.36
47761;BME280;33524;55.434;38.520;2022-08-21T06:30:31;101176.37;;;26.17;39.42
47761;BME280;33524;55.434;38.520;2022-08-21T06:32:59;101194.22;;;26.47;39.43
47761;BME280;33524;55.434;38.520;2022-08-21T06:35:27;101181.50;;;26.12;39.71
47761;BME280;33524;55.434;38.520;2022-08-21T06:37:56;101185.00;;;26.34;39.29
47761;BME280;33524;55.434;38.520;2022-08-21T06:40:25;101189.03;;;26.45;39.02
47761;BME280;33524;55.434;38.520;2022-08-21T06:42:57;101177.34;;;26.66;38.28
47761;BME280;33524;55.434;38.520;2022-08-21T06:45:27;101170.50;;;27.05;37.42
47761;BME280;33524;55.434;38.520;2022-08-21T06:47:59;101173.56;;;27.37;37.71
47761;BME280;33524;55.434;38.520;2022-08-21T06:50:26;101181.06;;;27.48;37.47
47761;BME280;33524;55.434;38.520;2022-08-21T06:53:10;101176.94;;;27.66;37.27
47761;BME280;33524;55.434;38.520;2022-08-21T06:55:39;101180.97;;;27.96;36.56
47761;BME280;33524;55.434;38.520;2022-08-21T06:58:07;101170.97;;;27.90;36.35
47761;BME280;33524;55.434;38.520;2022-08-21T07:00:36;101173.06;;;28.28;36.09
47761;BME280;33524;55.434;38.520;2022-08-21T07:03:06;101169.75;;;28.00;36.52
47761;BME280;33524;55.434;38.520;2022-08-21T07:05:33;101175.34;;;28.31;35.97
47761;BME280;33524;55.434;38.520;2022-08-21T07:08:01;101169.50;;;28.28;35.79
47761;BME280;33524;55.434;38.520;2022-08-21T07:10:29;101167.84;;;28.33;34.97
47761;BME280;33524;55.434;38.520;2022-08-21T07:12:56;101168.28;;;28.57;35.21
47761;BME280;33524;55.434;38.520;2022-08-21T07:15:30;101158.72;;;29.06;34.38
47761;BME280;33524;55.434;38.520;2022-08-21T07:17:58;101156.75;;;29.33;34.08
47761;BME280;33524;55.434;38.520;2022-08-21T07:20:27;101153.03;;;29.60;33.66
47761;BME280;33524;55.434;38.520;2022-08-21T07:22:56;101151.81;;;29.55;32.62
47761;BME280;33524;55.434;38.520;2022-08-21T07:25:27;101154.69;;;29.29;33.15
47761;BME280;33524;55.434;38.520;2022-08-21T07:27:54;101155.37;;;29.17;32.91
47761;BME280;33524;55.434;38.520;2022-08-21T07:30:22;101158.16;;;29.74;32.95
47761;BME280;33524;55.434;38.520;2022-08-21T07:32:51;101167.94;;;30.07;32.24
47761;BME280;33524;55.434;38.520;2022-08-21T07:35:19;101167.31;;;30.30;32.31
47761;BME280;33524;55.434;38.520;2022-08-21T07:37:47;101162.63;;;30.19;32.69
47761;BME280;33524;55.434;38.520;2022-08-21T07:40:16;101149.56;;;30.53;31.96
47761;BME280;33524;55.434;38.520;2022-08-21T07:42:44;101148.75;;;30.52;30.40
47761;BME280;33524;55.434;38.520;2022-08-21T07:45:14;101150.09;;;30.43;31.59
47761;BME280;33524;55.434;38.520;2022-08-21T07:47:42;101151.69;;;30.26;26.48
47761;BME280;33524;55.434;38.520;2022-08-21T07:50:11;101145.94;;;30.77;30.93
47761;BME280;33524;55.434;38.520;2022-08-21T07:52:43;101146.53;;;30.43;31.21
47761;BME280;33524;55.434;38.520;2022-08-21T07:55:11;101143.59;;;29.69;25.80
47761;BME280;33524;55.434;38.520;2022-08-21T07:57:39;101151.66;;;29.82;32.21
47761;BME280;33524;55.434;38.520;2022-08-21T08:00:09;101147.94;;;29.45;33.00
47761;BME280;33524;55.434;38.520;2022-08-21T08:02:38;101137.44;;;28.58;34.17
47761;BME280;33524;55.434;38.520;2022-08-21T08:05:08;101148.00;;;28.86;33.91
47761;BME280;33524;55.434;38.520;2022-08-21T08:07:36;101141.06;;;28.97;33.75
47761;BME280;33524;55.434;38.520;2022-08-21T08:10:05;101124.78;;;29.10;31.72
47761;BME280;33524;55.434;38.520;2022-08-21T08:12:37;101131.25;;;29.48;31.68
47761;BME280;33524;55.434;38.520;2022-08-21T08:15:05;101126.88;;;30.04;31.88
47761;BME280;33524;55.434;38.520;2022-08-21T08:17:33;101123.41;;;30.77;28.44
47761;BME280;33524;55.434;38.520;2022-08-21T08:20:02;101113.59;;;30.94;30.26
47761;BME280;33524;55.434;38.520;2022-08-21T08:22:29;101120.56;;;30.72;29.26
47761;BME280;33524;55.434;38.520;2022-08-21T08:24:57;101125.47;;;29.94;30.91
47761;BME280;33524;55.434;38.520;2022-08-21T08:27:44;101122.00;;;29.55;29.15
47761;BME280;33524;55.434;38.520;2022-08-21T08:30:13;101118.72;;;29.15;32.42
47761;BME280;33524;55.434;38.520;2022-08-21T08:32:42;101116.84;;;29.15;32.48
47761;BME280;33524;55.434;38.520;2022-08-21T08:35:10;101102.72;;;29.00;32.97
47761;BME280;33524;55.434;38.520;2022-08-21T08:37:39;101105.47;;;29.64;31.83
47761;BME280;33524;55.434;38.520;2022-08-21T08:40:12;101094.81;;;29.69;32.19
47761;BME280;33524;55.434;38.520;2022-08-21T08:42:41;101089.22;;;29.64;29.28
47761;BME280;33524;55.434;38.520;2022-08-21T08:45:11;101091.34;;;29.87;31.47
47761;BME280;33524;55.434;38.520;2022-08-21T08:47:47;101088.91;;;30.22;30.94
47761;BME280;33524;55.434;38.520;2022-08-21T08:53:05;101090.44;;;30.73;30.48
47761;BME280;33524;55.434;38.520;2022-08-21T08:55:37;101083.59;;;31.20;29.64
47761;BME280;33524;55.434;38.520;2022-08-21T08:58:06;101087.50;;;31.89;28.44
47761;BME280;33524;55.434;38.520;2022-08-21T09:00:34;101082.06;;;32.25;27.49
47761;BME280;33524;55.434;38.520;2022-08-21T09:03:02;101087.03;;;31.92;25.07
47761;BME280;33524;55.434;38.520;2022-08-21T09:08:14;101083.69;;;32.61;25.67
47761;BME280;33524;55.434;38.520;2022-08-21T09:10:47;101088.22;;;32.32;27.41
47761;BME280;33524;55.434;38.520;2022-08-21T09:13:21;101087.50;;;32.36;27.20
47761;BME280;33524;55.434;38.520;2022-08-21T09:16:09;101080.03;;;32.44;24.39
47761;BME280;33524;55.434;38.520;2022-08-21T09:18:48;101076.03;;;31.87;26.64
47761;BME280;33524;55.434;38.520;2022-08-21T09:21:28;101078.97;;;32.45;25.37
47761;BME280;33524;55.434;38.520;2022-08-21T09:24:22;101080.53;;;32.29;24.26
47761;BME280;33524;55.434;38.520;2022-08-21T09:27:04;101088.94;;;32.04;27.30
47761;BME280;33524;55.434;38.520;2022-08-21T09:29:36;101081.97;;;32.31;26.47
47761;BME280;33524;55.434;38.520;2022-08-21T09:32:08;101087.84;;;31.81;26.98
47761;BME280;33524;55.434;38.520;2022-08-21T09:34:43;101091.50;;;31.51;21.48
47761;BME280;33524;55.434;38.520;2022-08-21T09:37:17;101099.59;;;31.40;26.84
47761;BME280;33524;55.434;38.520;2022-08-21T09:39:46;101097.75;;;31.52;27.67
47761;BME280;33524;55.434;38.520;2022-08-21T09:42:21;101094.81;;;30.74;28.09
47761;BME280;33524;55.434;38.520;2022-08-21T09:45:00;101088.78;;;30.72;28.64
47761;BME280;33524;55.434;38.520;2022-08-21T09:47:31;101091.28;;;30.74;26.52
47761;BME280;33524;55.434;38.520;2022-08-21T09:50:09;101089.03;;;30.52;22.98
47761;BME280;33524;55.434;38.520;2022-08-21T09:52:42;101089.22;;;30.69;27.46
47761;BME280;33524;55.434;38.520;2022-08-21T09:58:17;101090.16;;;30.45;22.49
47761;BME280;33524;55.434;38.520;2022-08-21T10:00:47;101087.00;;;30.48;28.08
47761;BME280;33524;55.434;38.520;2022-08-21T10:03:24;101088.28;;;30.20;27.98
47761;BME280;33524;55.434;38.520;2022-08-21T10:05:54;101097.09;;;29.97;29.71
47761;BME280;33524;55.434;38.520;2022-08-21T10:08:25;101099.16;;;30.02;27.36
47761;BME280;33524;55.434;38.520;2022-08-21T10:10:56;101103.97;;;30.62;28.69
47761;BME280;33524;55.434;38.520;2022-08-21T10:26:49;101091.59;;;30.47;23.66
47761;BME280;33524;55.434;38.520;2022-08-21T10:30:03;101076.50;;;30.70;28.47
47761;BME280;33524;55.434;38.520;2022-08-21T10:42:48;101075.06;;;30.30;28.99
47761;BME280;33524;55.434;38.520;2022-08-21T10:47:48;101065.84;;;30.13;27.87
47761;BME280;33524;55.434;38.520;2022-08-21T10:55:50;101068.34;;;30.14;29.21
47761;BME280;33524;55.434;38.520;2022-08-21T10:58:25;101067.00;;;29.80;28.39
47761;BME280;33524;55.434;38.520;2022-08-21T11:01:03;101063.00;;;30.63;28.15
47761;BME280;33524;55.434;38.520;2022-08-21T11:06:09;101055.44;;;30.35;28.81
47761;BME280;33524;55.434;38.520;2022-08-21T11:08:40;101058.09;;;29.98;28.47
47761;BME280;33524;55.434;38.520;2022-08-21T11:11:12;101057.00;;;29.99;28.70
47761;BME280;33524;55.434;38.520;2022-08-21T11:13:46;101059.44;;;29.57;27.23
47761;BME280;33524;55.434;38.520;2022-08-21T11:16:35;101060.53;;;29.81;29.86
47761;BME280;33524;55.434;38.520;2022-08-21T11:19:10;101059.09;;;29.22;27.58
47761;BME280;33524;55.434;38.520;2022-08-21T11:21:46;101065.53;;;29.21;29.83
47761;BME280;33524;55.434;38.520;2022-08-21T11:27:05;101063.16;;;29.63;29.52
47761;BME280;33524;55.434;38.520;2022-08-21T11:29:38;101068.75;;;29.43;30.50
47761;BME280;33524;55.434;38.520;2022-08-21T11:40:02;101075.03;;;28.98;28.10
47761;BME280;33524;55.434;38.520;2022-08-21T11:47:44;101072.13;;;29.38;31.11
47761;BME280;33524;55.434;38.520;2022-08-21T11:50:17;101073.25;;;29.24;31.28
47761;BME280;33524;55.434;38.520;2022-08-21T11:55:34;101057.28;;;29.02;31.66
47761;BME280;33524;55.434;38.520;2022-08-21T11:58:06;101051.88;;;28.64;29.72
47761;BME280;33524;55.434;38.520;2022-08-21T12:00:38;101049.41;;;29.01;31.92
47761;BME280;33524;55.434;38.520;2022-08-21T12:03:11;101054.34;;;29.17;29.77
47761;BME280;33524;55.434;38.520;2022-08-21T12:05:40;101050.16;;;29.21;30.34
47761;BME280;33524;55.434;38.520;2022-08-21T12:11:00;101043.94;;;29.14;31.24
47761;BME280;33524;55.434;38.520;2022-08-21T12:13:29;101048.69;;;28.80;31.76
47761;BME280;33524;55.434;38.520;2022-08-21T12:16:09;101048.56;;;29.38;31.35
47761;BME280;33524;55.434;38.520;2022-08-21T12:18:37;101050.19;;;29.71;30.69
47761;BME280;33524;55.434;38.520;2022-08-21T12:23:35;101038.28;;;29.72;29.62
47761;BME280;33524;55.434;38.520;2022-08-21T12:26:18;101039.03;;;29.29;26.96
47761;BME280;33524;55.434;38.520;2022-08-21T12:28:47;101041.16;;;29.21;27.47
47761;BME280;33524;55.434;38.520;2022-08-21T12:31:19;101034.66;;;29.28;26.38
47761;BME280;33524;55.434;38.520;2022-08-21T12:33:53;101034.16;;;29.13;26.60
47761;BME280;33524;55.434;38.520;2022-08-21T12:36:24;101033.47;;;28.79;27.55
47761;BME280;33524;55.434;38.520;2022-08-21T12:38:57;101030.94;;;29.23;29.28
47761;BME280;33524;55.434;38.520;2022-08-21T12:41:32;101023.31;;;29.06;26.91
47761;BME280;33524;55.434;38.520;2022-08-21T12:44:03;101029.28;;;28.83;27.79
47761;BME280;33524;55.434;38.520;2022-08-21T12:46:42;101033.56;;;29.36;30.94
47761;BME280;33524;55.434;38.520;2022-08-21T12:49:16;101015.38;;;29.43;26.83
47761;BME280;33524;55.434;38.520;2022-08-21T12:51:55;101014.53;;;29.43;26.43
47761;BME280;33524;55.434;38.520;2022-08-21T12:54:25;101009.03;;;29.81;29.33
47761;BME280;33524;55.434;38.520;2022-08-21T12:57:01;101006.03;;;30.45;26.72
47761;BME280;33524;55.434;38.520;2022-08-21T12:59:30;101010.22;;;30.22;28.97
47761;BME280;33524;55.434;38.520;2022-08-21T13:01:59;100999.47;;;30.52;27.22
47761;BME280;33524;55.434;38.520;2022-08-21T13:04:34;101002.56;;;30.56;27.29
47761;BME280;33524;55.434;38.520;2022-08-21T13:07:11;101000.56;;;29.71;24.92
47761;BME280;33524;55.434;38.520;2022-08-21T13:09:44;100998.47;;;29.66;25.64
47761;BME280;33524;55.434;38.520;2022-08-21T13:12:14;100997.97;;;30.38;23.90
47761;BME280;33524;55.434;38.520;2022-08-21T13:14:44;100996.34;;;30.37;24.31
47761;BME280;33524;55.434;38.520;2022-08-21T13:17:16;101009.25;;;31.68;25.10
47761;BME280;33524;55.434;38.520;2022-08-21T13:19:52;101013.81;;;31.32;23.79
47761;BME280;33524;55.434;38.520;2022-08-21T13:22:21;101012.94;;;30.59;23.61
47761;BME280;33524;55.434;38.520;2022-08-21T13:25:01;101011.34;;;29.77;24.50
47761;BME280;33524;55.434;38.520;2022-08-21T13:27:33;101011.97;;;29.29;25.32
47761;BME280;33524;55.434;38.520;2022-08-21T13:30:10;101008.94;;;29.12;25.83
47761;BME280;33524;55.434;38.520;2022-08-21T13:32:40;101020.69;;;28.48;26.36
47761;BME280;33524;55.434;38.520;2022-08-21T13:35:10;101022.31;;;27.90;26.68
47761;BME280;33524;55.434;38.520;2022-08-21T13:37:40;101027.16;;;28.47;29.60
47761;BME280;33524;55.434;38.520;2022-08-21T13:40:15;101016.75;;;28.44;28.53
47761;BME280;33524;55.434;38.520;2022-08-21T13:42:44;101013.50;;;28.80;30.47
47761;BME280;33524;55.434;38.520;2022-08-21T13:45:13;101006.37;;;28.41;27.50
47761;BME280;33524;55.434;38.520;2022-08-21T13:47:42;101015.38;;;28.80;29.98
47761;BME280;33524;55.434;38.520;2022-08-21T13:50:11;101008.53;;;28.70;30.56
47761;BME280;33524;55.434;38.520;2022-08-21T13:52:49;101004.53;;;28.34;31.04
47761;BME280;33524;55.434;38.520;2022-08-21T13:55:18;101011.25;;;28.70;31.42
47761;BME280;33524;55.434;38.520;2022-08-21T13:57:46;101007.81;;;28.88;27.74
47761;BME280;33524;55.434;38.520;2022-08-21T14:00:19;101004.19;;;29.01;29.77
47761;BME280;33524;55.434;38.520;2022-08-21T14:02:49;101003.37;;;29.01;29.94
47761;BME280;33524;55.434;38.520;2022-08-21T14:05:22;101010.94;;;29.24;25.30
47761;BME280;33524;55.434;38.520;2022-08-21T14:07:50;100994.62;;;29.81;25.54